Time;durP1;ratioP1;P1;durP2;ratioP2;P2;SDS_P1;SDS_P2;PMS_P1;PMS_P2;Temp;Humidity;BMP_temperature;BMP_pressure;BME280_temperature;BME280_humidity;BME280_pressure;Samples;Min_cycle;Max_cycle;Signal;HPM_P1;HPM_P2
2022/04/02 00:02:14;;;;;;;31.00;9.20;;;;;;;13.34;42.58;98421.30;117428;1185;21973;-49
2022/04/02 00:04:42;;;;;;;41.00;10.40;;;;;;;13.35;42.75;98421.98;117329;1185;23469;-59
2022/04/02 00:07:11;;;;;;;35.90;10.20;;;;;;;13.37;42.85;98424.88;117425;1185;23442;-58
2022/04/02 00:09:59;;;;;;;25.50;8.20;;;;;;;13.40;42.82;98428.07;117354;1185;22462;-58
2022/04/02 00:12:32;;;;;;;24.00;8.30;;;;;;;13.43;42.79;98431.96;117392;1185;22932;-59
2022/04/02 00:15:09;;;;;;;29.30;8.90;;;;;;;13.47;42.81;98422.77;117309;1185;24136;-60
2022/04/02 00:17:38;;;;;;;25.80;8.60;;;;;;;13.50;42.81;98425.07;117398;1185;23143;-59
2022/04/02 00:20:08;;;;;;;39.00;9.40;;;;;;;13.52;42.80;98425.48;117371;1184;23466;-59
2022/04/02 00:22:36;;;;;;;27.00;9.10;;;;;;;13.53;42.94;98423.83;117405;1184;21863;-49
2022/04/02 00:25:05;;;;;;;35.60;9.90;;;;;;;13.53;42.92;98431.08;117448;1184;23474;-49
2022/04/02 00:27:34;;;;;;;30.20;8.40;;;;;;;13.53;42.99;98425.95;117367;1185;21849;-59
2022/04/02 00:30:03;;;;;;;29.30;8.40;;;;;;;13.56;43.10;98417.86;117424;1185;22925;-59
2022/04/02 00:32:32;;;;;;;19.70;7.50;;;;;;;13.57;43.18;98422.75;117438;1184;21845;-59
2022/04/02 00:35:01;;;;;;;34.50;7.40;;;;;;;13.57;43.28;98413.39;117446;1185;22805;-49
2022/04/02 00:37:30;;;;;;;27.20;7.20;;;;;;;13.61;43.25;98423.05;117469;1185;23598;-59
2022/04/02 00:39:58;;;;;;;23.30;7.20;;;;;;;13.66;43.40;98427.89;117415;1185;21839;-49
2022/04/02 00:42:26;;;;;;;28.90;7.90;;;;;;;13.72;43.44;98426.66;117448;1184;24208;-49
2022/04/02 00:44:55;;;;;;;26.40;7.20;;;;;;;13.77;43.47;98423.57;117458;1184;21861;-59
2022/04/02 00:47:24;;;;;;;22.20;5.90;;;;;;;13.81;43.47;98418.05;117399;1184;22983;-59
2022/04/02 00:49:54;;;;;;;22.10;6.60;;;;;;;13.88;43.79;98413.11;117428;1184;23627;-49
2022/04/02 00:52:22;;;;;;;33.10;8.80;;;;;;;13.90;43.46;98408.71;117419;1184;21867;-49
2022/04/02 00:54:50;;;;;;;20.40;6.10;;;;;;;13.92;43.54;98408.95;117432;1185;22041;-59
2022/04/02 00:57:19;;;;;;;24.70;6.90;;;;;;;13.93;43.66;98396.39;117312;1186;23468;-59
2022/04/02 00:59:48;;;;;;;26.70;7.50;;;;;;;13.92;43.61;98378.99;117368;1185;21893;-50
2022/04/02 01:02:18;;;;;;;25.40;6.40;;;;;;;13.89;43.61;98396.79;117361;1185;23455;-59
2022/04/02 01:04:50;;;;;;;20.60;6.20;;;;;;;13.86;44.01;98425.57;117393;1184;23538;-49
2022/04/02 01:07:19;;;;;;;22.00;5.80;;;;;;;13.85;43.83;98433.02;117425;1184;23449;-59
2022/04/02 01:09:55;;;;;;;21.70;6.00;;;;;;;13.83;44.03;98434.69;117368;1185;23459;-49
2022/04/02 01:12:38;;;;;;;24.00;6.60;;;;;;;13.82;44.14;98439.30;117409;1185;23493;-49
2022/04/02 01:15:08;;;;;;;19.40;6.00;;;;;;;13.83;43.90;98433.09;117387;1184;23447;-49
2022/04/02 01:17:40;;;;;;;21.40;6.30;;;;;;;13.85;43.99;98422.79;117466;1184;21987;-50
2022/04/02 01:20:12;;;;;;;19.50;5.60;;;;;;;13.83;43.99;98413.02;117390;1188;21845;-50
2022/04/02 01:22:40;;;;;;;15.20;4.90;;;;;;;13.79;44.09;98416.20;117363;1185;23589;-59
2022/04/02 01:25:10;;;;;;;20.10;5.60;;;;;;;13.75;43.98;98426.33;117376;1184;23469;-58
2022/04/02 01:27:39;;;;;;;20.50;5.00;;;;;;;13.70;44.02;98427.69;117482;1185;23608;-59
2022/04/02 01:30:10;;;;;;;14.40;4.30;;;;;;;13.63;43.94;98427.54;117449;1185;23432;-49
2022/04/02 01:32:38;;;;;;;14.40;3.90;;;;;;;13.55;43.95;98426.89;117364;1185;23478;-49
2022/04/02 01:35:08;;;;;;;15.90;3.90;;;;;;;13.47;44.00;98429.08;117398;1185;23442;-59
2022/04/02 01:37:39;;;;;;;18.90;4.00;;;;;;;13.39;43.95;98425.63;117415;1185;21845;-59
2022/04/02 01:40:08;;;;;;;17.00;4.20;;;;;;;13.34;44.18;98423.98;117344;1185;21970;-49
2022/04/02 01:42:36;;;;;;;12.50;3.20;;;;;;;13.29;44.18;98426.70;117315;1185;21846;-50
2022/04/02 01:45:06;;;;;;;11.90;3.10;;;;;;;13.26;44.33;98427.41;117417;1184;21869;-50
2022/04/02 01:47:35;;;;;;;11.90;4.10;;;;;;;13.23;44.37;98425.45;117352;1185;23573;-59
2022/04/02 01:50:05;;;;;;;9.90;3.10;;;;;;;13.21;44.57;98428.91;117433;1184;22935;-50
2022/04/02 01:52:34;;;;;;;12.70;3.00;;;;;;;13.20;44.60;98424.23;117397;1185;21933;-59
2022/04/02 01:55:03;;;;;;;11.30;2.90;;;;;;;13.19;44.66;98421.95;117422;1185;21938;-50
2022/04/02 01:57:32;;;;;;;8.60;2.40;;;;;;;13.18;44.53;98420.06;117441;1186;23444;-59
2022/04/02 02:00:01;;;;;;;8.80;2.60;;;;;;;13.18;44.50;98423.25;117440;1184;22803;-59
2022/04/02 02:02:31;;;;;;;7.10;2.00;;;;;;;13.18;44.56;98424.68;117414;1185;22184;-59
2022/04/02 02:05:00;;;;;;;6.50;2.20;;;;;;;13.17;44.41;98422.42;117439;1185;22826;-59
2022/04/02 02:07:29;;;;;;;5.90;2.20;;;;;;;13.18;44.49;98427.48;117405;1185;24349;-59
2022/04/02 02:09:58;;;;;;;11.10;2.50;;;;;;;13.16;44.55;98428.48;117393;1185;23685;-50
2022/04/02 02:12:26;;;;;;;8.00;2.50;;;;;;;13.12;44.66;98423.39;117390;1184;22982;-59
2022/04/02 02:14:56;;;;;;;8.30;2.10;;;;;;;13.07;44.68;98425.03;117439;1185;21846;-50
2022/04/02 02:17:45;;;;;;;7.00;2.30;;;;;;;13.04;44.78;98428.76;117295;1182;22035;-59
2022/04/02 02:20:15;;;;;;;11.90;2.80;;;;;;;13.02;44.78;98434.33;117409;1185;21898;-49
2022/04/02 02:22:45;;;;;;;6.00;1.90;;;;;;;13.00;44.84;98440.26;117403;1185;22879;-59
2022/04/02 02:25:14;;;;;;;10.60;2.60;;;;;;;12.97;44.65;98433.55;117419;1184;22610;-59
2022/04/02 02:27:47;;;;;;;10.40;2.80;;;;;;;12.94;44.68;98423.12;117385;1185;22642;-59
2022/04/02 02:30:16;;;;;;;11.50;2.20;;;;;;;12.89;44.75;98424.62;117384;1184;21910;-50
2022/04/02 02:32:45;;;;;;;7.00;2.20;;;;;;;12.84;44.76;98433.84;117437;1185;22807;-52
2022/04/02 02:38:03;;;;;;;7.30;2.30;;;;;;;12.72;44.53;98431.11;117424;1184;22716;-59
2022/04/02 02:40:32;;;;;;;5.40;2.00;;;;;;;12.68;44.71;98434.33;117400;1184;21908;-49
2022/04/02 02:43:02;;;;;;;6.10;2.10;;;;;;;12.65;44.83;98444.70;117404;1187;24144;-58
2022/04/02 02:45:32;;;;;;;6.20;1.90;;;;;;;12.62;44.78;98455.38;117380;1185;21879;-58
2022/04/02 02:48:01;;;;;;;11.30;2.40;;;;;;;12.60;44.71;98463.80;117443;1184;22085;-49
2022/04/02 02:50:34;;;;;;;6.10;1.80;;;;;;;12.57;44.83;98462.55;117444;1184;23560;-59
2022/04/02 02:53:02;;;;;;;5.50;2.00;;;;;;;12.54;45.00;98470.73;117410;1185;23445;-49
2022/04/02 02:55:31;;;;;;;5.90;1.70;;;;;;;12.53;45.13;98466.77;117403;1184;23547;-58
2022/04/02 02:58:00;;;;;;;4.60;1.60;;;;;;;12.53;44.84;98468.55;117369;1185;22641;-59
2022/04/02 03:00:29;;;;;;;7.60;2.10;;;;;;;12.52;45.12;98465.41;117398;1185;23343;-50
2022/04/02 03:02:59;;;;;;;5.10;2.10;;;;;;;12.54;45.34;98460.92;117366;1184;22979;-50
2022/04/02 03:05:27;;;;;;;8.20;2.90;;;;;;;12.46;45.43;98461.31;117422;1184;23449;-49
2022/04/02 03:08:16;;;;;;;7.50;2.20;;;;;;;12.45;45.71;98455.91;117376;1185;22906;-49
2022/04/02 03:10:45;;;;;;;10.00;2.90;;;;;;;12.45;45.58;98451.48;117483;1185;23745;-49
2022/04/02 03:13:14;;;;;;;5.90;2.40;;;;;;;12.46;45.72;98446.91;117433;1185;23336;-58
2022/04/02 03:15:44;;;;;;;5.20;2.20;;;;;;;12.46;45.95;98445.47;117388;1185;22970;-59
2022/04/02 03:18:13;;;;;;;7.10;2.30;;;;;;;12.47;46.14;98447.91;117433;1185;23464;-59
2022/04/02 03:20:42;;;;;;;6.60;2.30;;;;;;;12.48;46.33;98445.75;117462;1185;21848;-48
2022/04/02 03:23:11;;;;;;;10.40;2.40;;;;;;;12.50;46.56;98449.16;117416;1185;23013;-59
2022/04/02 03:25:40;;;;;;;8.60;2.40;;;;;;;12.53;46.41;98456.56;117434;1185;21863;-49
2022/04/02 03:28:08;;;;;;;8.60;2.10;;;;;;;12.57;46.45;98457.26;117401;1185;23468;-59
2022/04/02 03:30:38;;;;;;;6.40;2.10;;;;;;;12.61;46.64;98468.30;117397;1185;23469;-49
2022/04/02 03:33:06;;;;;;;9.40;2.60;;;;;;;12.64;47.11;98473.41;117411;1185;21922;-49
2022/04/02 03:35:36;;;;;;;5.20;1.70;;;;;;;12.66;46.93;98480.70;117497;1185;24155;-59
2022/04/02 03:38:05;;;;;;;6.60;2.30;;;;;;;12.66;47.37;98474.70;117349;1184;21967;-49
2022/04/02 03:40:34;;;;;;;6.70;2.50;;;;;;;12.67;47.08;98472.58;117474;1185;22088;-49
2022/04/02 03:43:04;;;;;;;5.70;2.20;;;;;;;12.68;47.09;98470.73;117336;1184;21846;-60
2022/04/02 03:45:33;;;;;;;5.20;2.00;;;;;;;12.73;47.51;98475.45;117370;1183;23469;-50
2022/04/02 03:48:01;;;;;;;7.20;1.90;;;;;;;12.76;47.42;98474.75;117418;1184;21849;-59
2022/04/02 03:50:31;;;;;;;5.80;2.10;;;;;;;12.81;47.24;98467.81;117421;1184;23616;-49
2022/04/02 03:53:00;;;;;;;3.90;1.80;;;;;;;12.86;47.37;98457.70;117435;1184;22319;-59
2022/04/02 03:55:29;;;;;;;7.20;1.90;;;;;;;12.88;47.53;98463.38;117448;1185;23465;-56
2022/04/02 03:57:59;;;;;;;5.30;1.90;;;;;;;12.90;47.21;98461.18;117445;1185;22142;-59
2022/04/02 04:00:27;;;;;;;8.10;1.90;;;;;;;12.93;47.09;98467.36;117386;1185;21852;-51
2022/04/02 04:02:57;;;;;;;7.10;2.40;;;;;;;12.97;47.23;98475.27;117426;1184;22840;-59
2022/04/02 04:05:28;;;;;;;8.30;2.30;;;;;;;13.01;47.05;98477.36;117313;1185;23052;-49
2022/04/02 04:07:56;;;;;;;6.40;1.70;;;;;;;13.04;47.26;98472.96;117376;1184;22612;-50
2022/04/02 04:10:25;;;;;;;6.50;2.00;;;;;;;13.07;47.25;98472.95;117457;1185;21836;-49
2022/04/02 04:12:55;;;;;;;5.70;1.90;;;;;;;12.98;47.28;98470.62;117537;1184;23452;-50
2022/04/02 04:15:24;;;;;;;6.80;2.20;;;;;;;12.97;47.59;98472.64;117439;1184;23570;-59
2022/04/02 04:17:52;;;;;;;7.10;1.70;;;;;;;12.97;47.53;98472.64;117417;1184;21947;-50
2022/04/02 04:20:22;;;;;;;6.70;2.30;;;;;;;12.96;47.44;98470.91;117450;1185;22616;-49
2022/04/02 04:22:52;;;;;;;5.30;1.90;;;;;;;12.99;47.47;98472.86;117345;1185;23488;-59
2022/04/02 04:25:22;;;;;;;6.40;2.20;;;;;;;13.05;47.60;98475.55;117460;1185;21849;-50
2022/04/02 04:27:51;;;;;;;7.80;2.70;;;;;;;13.09;47.65;98477.26;117413;1184;21854;-59
2022/04/02 04:30:20;;;;;;;8.50;3.20;;;;;;;13.14;47.56;98472.97;117528;1185;21854;-58
2022/04/02 04:32:50;;;;;;;10.80;4.20;;;;;;;13.19;47.66;98472.88;117553;1185;21887;-58
2022/04/02 04:35:18;;;;;;;8.70;4.60;;;;;;;13.23;47.83;98468.92;117531;1185;24297;-50
2022/04/02 04:37:47;;;;;;;8.60;5.30;;;;;;;13.30;48.15;98462.77;117496;1184;23445;-59
2022/04/02 04:40:16;;;;;;;10.50;7.00;;;;;;;13.37;48.36;98463.77;117488;1184;23448;-59
2022/04/02 04:42:46;;;;;;;13.20;7.20;;;;;;;13.45;48.21;98461.85;117462;1184;21846;-50
2022/04/02 04:45:15;;;;;;;9.20;7.00;;;;;;;13.49;48.66;98461.92;117488;1185;24152;-59
2022/04/02 04:47:46;;;;;;;11.90;7.10;;;;;;;13.54;48.60;98462.73;117506;1184;21849;-59
2022/04/02 04:50:15;;;;;;;17.00;7.70;;;;;;;13.49;48.55;98463.15;117531;1183;23738;-50
2022/04/02 04:52:43;;;;;;;11.50;8.70;;;;;;;13.51;48.54;98461.50;117451;1185;21845;-59
2022/04/02 04:55:13;;;;;;;11.50;7.80;;;;;;;13.65;48.33;98463.36;117349;1186;21890;-58
2022/04/02 04:57:43;;;;;;;11.50;8.40;;;;;;;13.71;48.52;98465.83;117464;1185;21846;-50
2022/04/02 05:00:15;;;;;;;17.00;9.30;;;;;;;13.76;48.44;98469.28;117462;1185;21856;-60
2022/04/02 05:02:47;;;;;;;15.20;8.30;;;;;;;13.80;48.30;98467.65;117440;1185;22960;-59
2022/04/02 05:05:16;;;;;;;11.10;7.20;;;;;;;13.83;48.57;98468.52;117529;1184;23438;-49
2022/04/02 05:07:59;;;;;;;11.50;7.40;;;;;;;13.86;48.63;98469.63;117480;1184;23442;-50
2022/04/02 05:10:47;;;;;;;16.90;7.40;;;;;;;13.89;48.53;98474.18;117591;1185;23442;-49
2022/04/02 05:13:15;;;;;;;14.20;8.00;;;;;;;13.94;48.44;98475.11;117415;1185;24168;-59
2022/04/02 05:15:46;;;;;;;;;;;;;;;13.99;48.91;98472.55;117522;1185;23524;-49
2022/04/02 05:18:15;;;;;;;13.60;6.80;;;;;;;14.04;49.14;98474.41;117431;1185;23516;-50
2022/04/02 05:20:56;;;;;;;15.30;7.10;;;;;;;14.11;48.76;98475.05;117414;1179;23547;-60
2022/04/02 05:23:25;;;;;;;16.70;7.30;;;;;;;14.21;48.87;98478.38;117364;1186;22614;-58
2022/04/02 05:25:55;;;;;;;11.80;6.60;;;;;;;14.34;49.14;98483.29;117375;1185;24153;-58
2022/04/02 05:28:23;;;;;;;17.30;6.50;;;;;;;14.47;48.90;98482.91;117524;1185;21910;-48
2022/04/02 05:30:52;;;;;;;12.40;6.10;;;;;;;14.60;48.84;98482.86;117525;1185;22460;-59
2022/04/02 05:33:21;;;;;;;14.00;5.90;;;;;;;14.68;48.78;98484.14;117467;1184;23545;-58
2022/04/02 05:36:10;;;;;;;14.50;4.90;;;;;;;14.75;48.76;98480.59;117449;1184;21821;-49
2022/04/02 05:38:39;;;;;;;17.00;5.90;;;;;;;14.80;49.21;98485.91;117445;1184;21849;-59
2022/04/02 05:41:08;;;;;;;13.50;4.90;;;;;;;14.89;49.21;98491.77;117526;1183;21844;-49
2022/04/02 05:43:37;;;;;;;10.50;4.60;;;;;;;14.96;48.93;98495.20;117509;1185;23901;-49
2022/04/02 05:46:06;;;;;;;13.50;5.50;;;;;;;15.05;49.30;98500.16;117489;1185;24126;-49
2022/04/02 05:48:35;;;;;;;13.50;5.10;;;;;;;15.11;49.49;98502.42;117502;1185;21927;-49
2022/04/02 05:51:04;;;;;;;11.60;4.30;;;;;;;15.16;49.55;98494.17;117529;1185;24162;-48
2022/04/02 05:53:32;;;;;;;10.10;4.90;;;;;;;15.19;49.25;98493.81;117429;1185;24344;-59
2022/04/02 05:56:02;;;;;;;10.20;4.20;;;;;;;15.23;49.15;98489.85;117540;1185;24229;-59
2022/04/02 05:58:30;;;;;;;10.50;5.40;;;;;;;15.32;49.18;98486.11;117538;1184;21852;-58
2022/04/02 06:00:59;;;;;;;8.90;4.00;;;;;;;15.37;48.98;98483.35;117596;1185;21841;-58
2022/04/02 06:03:29;;;;;;;8.40;3.50;;;;;;;15.42;48.76;98480.90;117524;1184;23461;-49
2022/04/02 06:05:58;;;;;;;9.40;4.40;;;;;;;15.50;48.71;98470.36;117499;1185;21886;-58
2022/04/02 06:08:27;;;;;;;11.60;5.00;;;;;;;15.52;48.94;98472.69;117524;1185;21842;-49
2022/04/02 06:10:55;;;;;;;12.40;4.30;;;;;;;15.57;48.90;98472.77;117537;1184;23477;-49
2022/04/02 06:13:24;;;;;;;12.50;4.50;;;;;;;15.55;48.89;98476.08;117481;1185;23439;-57
2022/04/02 06:15:57;;;;;;;13.50;4.10;;;;;;;15.62;48.77;98476.34;117541;1184;23448;-58
2022/04/02 06:18:26;;;;;;;12.40;4.20;;;;;;;15.63;48.87;98479.08;117615;1185;21846;-49
2022/04/02 06:20:55;;;;;;;11.30;4.50;;;;;;;15.76;49.12;98481.62;118743;1184;22386;-59
2022/04/02 06:23:25;;;;;;;11.30;4.60;;;;;;;15.94;49.11;98480.31;117502;1184;24149;-49
2022/04/02 06:25:54;;;;;;;12.30;4.40;;;;;;;16.13;49.11;98483.71;117469;1183;21869;-58
2022/04/02 06:28:23;;;;;;;12.00;4.80;;;;;;;16.31;49.18;98486.39;117467;1186;22502;-49
2022/04/02 06:30:52;;;;;;;11.60;4.50;;;;;;;16.48;49.18;98487.22;117434;1185;21856;-58
2022/04/02 06:33:21;;;;;;;16.40;4.90;;;;;;;16.64;49.02;98485.52;117398;1185;21892;-49
2022/04/02 06:35:50;;;;;;;12.70;4.10;;;;;;;16.71;48.91;98486.58;117432;1184;21946;-49
2022/04/02 06:38:18;;;;;;;13.30;4.50;;;;;;;16.75;48.70;98495.16;117526;1184;23562;-58
2022/04/02 06:40:48;;;;;;;11.80;4.00;;;;;;;16.80;48.80;98495.05;117302;1185;23569;-58
2022/04/02 06:43:16;;;;;;;12.40;4.20;;;;;;;16.85;48.71;98498.79;117426;1186;21889;-50
2022/04/02 06:45:44;;;;;;;13.60;4.10;;;;;;;16.95;48.68;98494.59;117379;1185;21860;-56
2022/04/02 06:48:14;;;;;;;11.60;4.70;;;;;;;17.09;48.77;98495.41;117300;1182;23471;-51
2022/04/02 06:50:44;;;;;;;7.30;3.60;;;;;;;17.16;48.46;98495.11;117306;1180;21937;-59
2022/04/02 06:53:13;;;;;;;8.50;4.20;;;;;;;17.21;48.58;98494.16;117390;1185;23567;-60
2022/04/02 06:55:42;;;;;;;9.60;3.20;;;;;;;17.26;48.50;98495.65;117337;1186;23572;-51
2022/04/02 06:58:34;;;;;;;11.10;4.90;;;;;;;17.31;48.59;98499.19;117880;1185;23547;-52
2022/04/02 07:01:03;;;;;;;9.90;4.20;;;;;;;17.36;48.60;98493.48;117431;1184;21853;-59
2022/04/02 07:03:31;;;;;;;12.40;4.40;;;;;;;17.43;48.57;98493.41;117398;1185;23570;-59
2022/04/02 07:06:00;;;;;;;8.70;4.10;;;;;;;17.50;48.49;98491.31;117372;1185;23589;-59
2022/04/02 07:08:40;;;;;;;13.20;4.70;;;;;;;17.55;48.71;98493.23;117290;1186;23561;-58
2022/04/02 07:11:29;;;;;;;12.70;4.90;;;;;;;17.55;48.41;98494.30;117303;1185;21847;-50
2022/04/02 07:14:00;;;;;;;7.60;4.00;;;;;;;17.53;48.61;98490.05;117409;1185;22802;-59
2022/04/02 07:16:48;;;;;;;9.40;4.00;;;;;;;17.58;48.81;98492.71;117334;1185;21849;-50
2022/04/02 07:19:20;;;;;;;9.10;3.50;;;;;;;17.68;48.65;98491.48;117351;1184;21849;-59
2022/04/02 07:21:52;;;;;;;13.00;4.50;;;;;;;17.82;48.73;98488.88;117306;1185;21851;-50
2022/04/02 07:24:22;;;;;;;9.60;3.80;;;;;;;17.97;48.72;98489.36;117308;1184;21980;-50
2022/04/02 07:26:52;;;;;;;7.60;3.10;;;;;;;18.14;48.73;98486.05;117309;1185;23583;-50
2022/04/02 07:29:20;;;;;;;10.80;3.60;;;;;;;18.30;48.67;98484.51;117316;1184;21853;-52
2022/04/02 07:31:50;;;;;;;7.50;2.50;;;;;;;18.49;48.75;98481.48;117404;1182;21852;-59
2022/04/02 07:34:21;;;;;;;11.10;3.10;;;;;;;18.67;48.55;98487.39;117305;1185;22644;-59
2022/04/02 07:37:21;;;;;;;7.90;2.80;;;;;;;18.80;48.69;98482.31;117467;1184;21947;-59
2022/04/02 07:40:13;;;;;;;8.70;3.00;;;;;;;19.08;48.60;98482.02;117384;1184;23547;-59
2022/04/02 07:42:47;;;;;;;8.70;2.40;;;;;;;19.27;48.51;98478.39;117343;1185;21862;-59
2022/04/02 07:45:19;;;;;;;8.50;2.50;;;;;;;19.41;48.42;98476.63;117367;1185;23589;-51
2022/04/02 07:47:59;;;;;;;14.20;3.10;;;;;;;19.60;48.60;98477.39;117365;1185;23647;-59
2022/04/02 07:50:29;;;;;;;8.20;2.00;;;;;;;19.75;48.28;98478.19;117275;1185;21913;-51
2022/04/02 07:52:58;;;;;;;10.00;2.60;;;;;;;19.87;48.20;98478.86;117439;1185;22824;-60
2022/04/02 07:55:28;;;;;;;10.20;2.80;;;;;;;19.86;47.87;98483.38;117341;1184;24701;-57
2022/04/02 07:57:57;;;;;;;8.00;2.40;;;;;;;19.76;47.65;98483.29;117285;1185;23592;-59
2022/04/02 08:00:27;;;;;;;5.90;1.90;;;;;;;19.66;47.52;98484.44;117301;1184;21914;-50
2022/04/02 08:02:56;;;;;;;8.60;2.90;;;;;;;19.59;47.56;98495.08;117402;1185;22188;-51
2022/04/02 08:05:26;;;;;;;7.60;2.80;;;;;;;19.51;47.48;98494.47;117324;1185;21847;-50
2022/04/02 08:07:58;;;;;;;5.10;2.20;;;;;;;19.42;47.45;98489.16;117416;1185;23547;-58
2022/04/02 08:10:28;;;;;;;11.10;2.80;;;;;;;19.34;47.38;98491.23;117443;1185;21896;-51
2022/04/02 08:12:58;;;;;;;11.70;2.60;;;;;;;19.34;47.46;98492.80;117362;1186;21857;-59
2022/04/02 08:15:27;;;;;;;10.30;2.90;;;;;;;19.46;47.40;98492.19;117387;1185;21856;-51
2022/04/02 08:17:56;;;;;;;15.10;2.70;;;;;;;19.53;47.16;98491.85;117410;1186;21859;-59
2022/04/02 08:20:25;;;;;;;9.10;2.80;;;;;;;19.46;47.07;98492.90;117354;1185;21859;-51
2022/04/02 08:23:13;;;;;;;8.70;2.30;;;;;;;19.42;46.94;98486.44;117308;1186;21847;-58
2022/04/02 08:26:44;;;;;;;8.40;2.80;;;;;;;19.37;46.96;98484.92;117276;1185;22652;-51
2022/04/02 08:29:27;;;;;;;10.70;2.90;;;;;;;19.23;47.02;98474.96;117372;1188;22915;-59
2022/04/02 08:32:04;;;;;;;8.60;2.20;;;;;;;19.20;47.07;98478.27;117376;1181;22075;-51
2022/04/02 08:34:39;;;;;;;8.90;2.50;;;;;;;19.15;47.23;98478.08;117224;1179;23550;-52
2022/04/02 08:37:31;;;;;;;5.50;1.90;;;;;;;19.14;47.18;98477.27;117265;1179;21857;-51
2022/04/02 08:40:36;;;;;;;10.10;2.60;;;;;;;19.22;46.97;98479.02;117161;1182;22593;-50
2022/04/02 08:43:17;;;;;;;;;;;;;;;19.22;47.00;98470.41;117345;1181;22924;-51
2022/04/02 08:46:03;;;;;;;6.70;2.10;;;;;;;19.21;47.01;98470.68;117517;1180;22312;-51
2022/04/02 08:48:36;;;;;;;8.20;2.90;;;;;;;19.15;47.18;98468.69;117220;1182;23444;-51
2022/04/02 08:51:14;;;;;;;13.40;3.50;;;;;;;19.15;47.03;98464.95;117167;1182;22988;-59
2022/04/02 08:54:01;;;;;;;14.90;2.60;;;;;;;19.10;46.97;98455.73;117257;1179;21956;-60
2022/04/02 08:56:30;;;;;;;14.70;3.10;;;;;;;19.15;46.80;98449.27;117213;1179;23222;-58
2022/04/02 08:59:06;;;;;;;9.80;2.20;;;;;;;19.15;46.58;98452.87;117144;1181;21860;-51
2022/04/02 09:01:41;;;;;;;6.30;2.30;;;;;;;19.10;46.60;98458.91;117232;1179;22922;-53
2022/04/02 09:04:35;;;;;;;11.70;2.40;;;;;;;19.04;46.55;98468.80;117214;1182;21856;-59
2022/04/02 09:07:28;;;;;;;4.40;1.40;;;;;;;18.92;46.42;98486.41;117273;1179;23408;-59
2022/04/02 09:10:30;;;;;;;9.20;1.70;;;;;;;18.61;46.03;98484.64;117307;1182;22918;-52
2022/04/02 09:13:48;;;;;;;10.40;1.30;;;;;;;18.24;45.94;98498.24;117352;1180;24287;-51
2022/04/02 09:16:25;;;;;;;6.10;1.50;;;;;;;17.81;45.92;98494.98;117309;1182;21853;-60
2022/04/02 09:19:19;;;;;;;4.90;1.60;;;;;;;17.30;46.06;98488.61;117278;1186;23624;-60
2022/04/02 09:22:03;;;;;;;10.40;1.80;;;;;;;16.97;46.18;98486.63;117349;1185;21858;-59
2022/04/02 09:25:23;;;;;;;6.60;1.30;;;;;;;16.71;46.39;98485.73;117305;1185;21916;-60
2022/04/02 09:28:18;;;;;;;4.50;1.50;;;;;;;16.58;46.37;98490.51;117158;1184;22009;-56
2022/04/02 09:31:02;;;;;;;6.10;1.60;;;;;;;16.53;46.35;98487.96;117353;1184;23420;-60
2022/04/02 09:33:40;;;;;;;5.80;2.40;;;;;;;16.50;46.43;98490.82;117379;1185;23258;-51
2022/04/02 09:36:28;;;;;;;10.40;2.80;;;;;;;16.42;46.48;98488.14;117307;1185;22805;-50
2022/04/02 09:39:06;;;;;;;7.70;2.20;;;;;;;16.39;46.63;98485.73;117299;1185;22645;-50
2022/04/02 09:41:41;;;;;;;6.50;2.40;;;;;;;16.36;46.67;98484.46;117462;1186;23472;-59
2022/04/02 09:44:42;;;;;;;6.50;2.10;;;;;;;16.36;46.67;98481.14;117456;1185;23445;-58
2022/04/02 09:47:21;;;;;;;8.70;2.60;;;;;;;16.35;46.84;98475.34;117125;1186;23647;-59
2022/04/02 09:50:10;;;;;;;8.10;1.50;;;;;;;16.34;46.74;98478.23;117293;1185;22614;-51
2022/04/02 09:52:51;;;;;;;22.50;4.00;;;;;;;16.19;46.91;98501.73;117381;1185;21849;-52
2022/04/02 09:55:24;;;;;;;15.90;4.50;;;;;;;15.96;46.76;98517.52;117242;1180;22944;-51
2022/04/02 09:57:58;;;;;;;13.40;4.10;;;;;;;15.63;46.79;98524.20;117352;1184;21849;-63
2022/04/02 10:00:45;;;;;;;13.50;3.50;;;;;;;15.36;46.94;98519.65;117430;1186;23064;-63
2022/04/02 10:03:47;;;;;;;11.50;4.10;;;;;;;15.12;47.06;98527.81;117377;1185;21921;-63
2022/04/02 10:06:25;;;;;;;12.60;3.50;;;;;;;14.95;47.02;98530.58;117210;1185;23560;-63
2022/04/02 10:09:03;;;;;;;12.80;4.70;;;;;;;14.95;46.96;98530.04;117444;1185;22992;-62
2022/04/02 10:11:34;;;;;;;11.50;3.60;;;;;;;14.84;47.07;98536.73;117407;1186;21867;-62
2022/04/02 10:14:04;;;;;;;9.20;3.10;;;;;;;14.67;47.47;98534.51;117355;1186;23547;-52
2022/04/02 10:16:35;;;;;;;5.40;2.10;;;;;;;14.59;47.44;98537.27;117330;1185;21913;-53
2022/04/02 10:19:07;;;;;;;6.00;2.50;;;;;;;14.55;47.51;98536.60;117394;1185;22934;-61
2022/04/02 10:21:37;;;;;;;6.00;2.10;;;;;;;14.56;47.73;98538.66;117361;1184;24185;-61
2022/04/02 10:24:11;;;;;;;6.30;2.40;;;;;;;14.59;47.88;98540.77;117292;1186;23650;-62
2022/04/02 10:26:40;;;;;;;7.30;2.80;;;;;;;14.70;47.76;98536.45;117454;1185;21864;-62
2022/04/02 10:29:11;;;;;;;10.80;3.60;;;;;;;14.82;47.77;98540.55;117566;1184;22979;-62
2022/04/02 10:31:48;;;;;;;10.10;4.10;;;;;;;14.82;47.91;98541.92;117431;1186;21881;-52
2022/04/02 10:34:29;;;;;;;6.40;3.00;;;;;;;14.97;47.90;98542.80;117316;1184;21914;-52
2022/04/02 10:37:15;;;;;;;12.00;4.40;;;;;;;15.11;48.17;98544.12;117424;1181;23487;-52
2022/04/02 10:39:50;;;;;;;9.10;3.90;;;;;;;15.25;48.42;98542.72;117301;1184;24230;-52
2022/04/02 10:42:20;;;;;;;8.10;4.40;;;;;;;15.35;48.60;98544.09;117354;1186;23708;-62
2022/04/02 10:44:58;;;;;;;7.30;3.90;;;;;;;15.42;48.59;98546.30;117609;1184;22211;-63
2022/04/02 10:47:27;;;;;;;10.40;4.70;;;;;;;15.47;48.54;98550.80;117352;1185;21972;-50
2022/04/02 10:50:05;;;;;;;11.10;5.60;;;;;;;15.41;48.71;98550.46;117423;1185;21853;-50
2022/04/02 10:52:34;;;;;;;13.40;6.20;;;;;;;15.37;48.84;98548.92;117400;1186;21857;-52
2022/04/02 10:55:03;;;;;;;15.50;7.00;;;;;;;15.34;48.75;98549.11;117227;1185;21893;-51
2022/04/02 10:57:33;;;;;;;12.70;7.20;;;;;;;15.34;48.79;98550.52;119444;1184;21763;-52
2022/04/02 11:00:07;;;;;;;8.30;6.30;;;;;;;15.37;48.96;98549.81;117992;1185;23032;-63
2022/04/02 11:02:41;;;;;;;9.50;5.50;;;;;;;15.40;49.28;98548.17;117443;1184;21964;-62
2022/04/02 11:05:11;;;;;;;11.00;5.90;;;;;;;15.44;49.22;98553.59;117428;1185;22924;-62
2022/04/02 11:07:42;;;;;;;11.60;6.00;;;;;;;15.52;49.47;98544.64;117302;1185;21859;-63
2022/04/02 11:10:33;;;;;;;15.00;7.10;;;;;;;15.64;49.46;98546.76;117385;1186;23587;-53
2022/04/02 11:13:04;;;;;;;10.50;6.40;;;;;;;15.77;49.57;98552.11;117339;1185;21884;-52
2022/04/02 11:15:41;;;;;;;12.30;6.30;;;;;;;15.91;49.67;98552.14;117439;1184;22743;-62
2022/04/02 11:18:17;;;;;;;10.60;6.10;;;;;;;16.08;49.73;98557.44;117536;1184;23455;-61
2022/04/02 11:20:47;;;;;;;9.60;5.90;;;;;;;16.31;50.06;98553.83;117415;1185;21849;-52
2022/04/02 11:23:21;;;;;;;7.00;4.60;;;;;;;16.62;50.23;98545.27;117426;1184;21858;-53
2022/04/02 11:25:54;;;;;;;6.30;4.20;;;;;;;16.95;50.25;98547.15;117346;1185;23472;-61
2022/04/02 11:28:23;;;;;;;8.70;4.40;;;;;;;17.27;50.38;98545.19;117414;1183;21857;-61
2022/04/02 11:31:01;;;;;;;5.90;4.00;;;;;;;17.52;50.31;98545.63;117319;1186;23468;-61
2022/04/02 11:33:51;;;;;;;7.70;4.50;;;;;;;17.70;50.14;98551.41;117347;1185;23890;-52
2022/04/02 11:36:23;;;;;;;7.30;4.00;;;;;;;17.79;50.06;98550.46;117378;1186;22094;-60
2022/04/02 11:38:59;;;;;;;5.30;3.20;;;;;;;17.88;50.11;98545.55;117481;1185;21850;-60
2022/04/02 11:41:33;;;;;;;5.50;3.50;;;;;;;17.97;49.95;98539.75;117352;1185;21848;-52
2022/04/02 11:44:08;;;;;;;5.60;2.80;;;;;;;18.07;49.92;98539.77;117397;1186;23589;-53
2022/04/02 11:46:55;;;;;;;7.60;3.80;;;;;;;18.13;49.77;98540.75;117967;1175;97740;-80
2022/04/02 11:49:33;;;;;;;4.20;2.30;;;;;;;18.21;49.87;98542.31;117778;1184;22915;-80
2022/04/02 11:52:05;;;;;;;8.20;5.30;;;;;;;18.30;49.80;98537.38;117939;1182;23669;-81
2022/04/02 11:54:41;;;;;;;3.90;2.30;;;;;;;18.45;49.93;98537.73;117847;1182;22614;-81